Time;durP1;ratioP1;P1;durP2;ratioP2;P2;SDS_P1;SDS_P2;PMS_P1;PMS_P2;Temp;Humidity;BMP_temperature;BMP_pressure;BME280_temperature;BME280_humidity;BME280_pressure;Samples;Min_cycle;Max_cycle;Signal;HPM_P1;HPM_P2
2021/08/21 00:01:58;;;;;;;8.77;6.28;;;;;;;22.12;65.17;100596.63;4954638;28;20031;-94
2021/08/21 00:04:24;;;;;;;9.77;6.30;;;;;;;21.99;65.69;100593.66;4954467;28;20528;-93
2021/08/21 00:06:49;;;;;;;11.40;7.25;;;;;;;21.90;65.84;100592.03;4969141;28;20035;-93
2021/08/21 00:09:15;;;;;;;7.82;5.80;;;;;;;21.87;66.02;100592.41;4954490;29;20118;-94
2021/08/21 00:11:41;;;;;;;11.88;6.57;;;;;;;21.83;66.08;100593.75;4953170;28;20030;-93
2021/08/21 00:14:06;;;;;;;8.73;5.75;;;;;;;21.86;65.78;100596.91;4953295;28;20034;-93
2021/08/21 00:16:33;;;;;;;10.00;6.18;;;;;;;21.83;66.08;100588.41;4954325;28;20062;-94
2021/08/21 00:18:59;;;;;;;8.85;6.35;;;;;;;21.83;66.29;100580.38;4952885;29;20413;-93
2021/08/21 00:21:24;;;;;;;8.35;6.03;;;;;;;21.86;66.24;100569.34;4954200;28;20031;-93
2021/08/21 00:23:50;;;;;;;9.55;5.93;;;;;;;21.79;66.24;100558.50;4954135;28;20406;-94
2021/08/21 00:26:15;;;;;;;8.95;6.70;;;;;;;21.79;66.33;100563.84;4968769;28;20028;-93
2021/08/21 00:28:41;;;;;;;7.70;5.57;;;;;;;21.79;66.30;100570.03;4954517;28;20509;-93
2021/08/21 00:31:06;;;;;;;7.47;5.85;;;;;;;21.75;66.52;100573.22;4953938;28;20386;-94
2021/08/21 00:33:32;;;;;;;7.32;5.80;;;;;;;21.76;66.59;100572.22;4954175;28;20470;-93
2021/08/21 00:35:58;;;;;;;7.75;5.07;;;;;;;21.73;66.33;100584.09;4968806;28;20019;-93
2021/08/21 00:38:23;;;;;;;6.47;5.65;;;;;;;21.70;66.29;100580.94;4953714;28;20039;-95
2021/08/21 00:40:48;;;;;;;8.10;5.82;;;;;;;21.62;66.77;100573.75;4954411;28;20038;-94
2021/08/21 00:43:16;;;;;;;7.88;4.90;;;;;;;21.64;66.89;100582.44;4953958;28;20470;-93
2021/08/21 00:45:41;;;;;;;9.50;6.00;;;;;;;21.58;66.81;100584.00;4968817;28;20024;-94
2021/08/21 00:48:07;;;;;;;6.45;4.68;;;;;;;21.56;66.95;100575.31;4953894;28;20046;-93
2021/08/21 00:50:32;;;;;;;8.30;5.60;;;;;;;21.60;66.80;100575.78;4953845;28;20023;-94
2021/08/21 00:52:57;;;;;;;10.50;6.03;;;;;;;21.54;67.06;100579.16;4953902;28;20113;-94
2021/08/21 00:55:24;;;;;;;6.72;5.63;;;;;;;21.62;66.87;100568.41;4970247;28;20498;-93
2021/08/21 00:57:49;;;;;;;9.18;5.35;;;;;;;21.59;67.14;100566.13;4954335;28;20023;-93
2021/08/21 01:00:15;;;;;;;9.38;5.88;;;;;;;21.56;67.13;100563.78;4953969;28;20033;-93
2021/08/21 01:02:40;;;;;;;10.35;5.68;;;;;;;21.57;66.92;100562.78;4954233;29;20074;-93
2021/08/21 01:05:08;;;;;;;8.98;5.20;;;;;;;21.64;66.96;100576.28;4953994;28;20493;-94
2021/08/21 01:07:36;;;;;;;6.85;5.95;;;;;;;21.63;67.15;100569.28;4952850;28;20035;-93
2021/08/21 01:10:07;;;;;;;8.00;5.05;;;;;;;21.64;66.67;100570.94;4952622;29;20023;-94
2021/08/21 01:12:34;;;;;;;9.73;5.65;;;;;;;21.51;67.27;100566.16;4968546;28;20037;-93
2021/08/21 01:14:59;;;;;;;7.38;5.07;;;;;;;21.51;67.34;100574.16;4953816;28;20028;-94
2021/08/21 01:17:25;;;;;;;8.73;5.82;;;;;;;21.50;67.15;100567.13;4953945;29;20086;-94
2021/08/21 01:19:51;;;;;;;7.15;5.57;;;;;;;21.49;67.48;100568.16;4953487;28;20074;-93
2021/08/21 01:22:20;;;;;;;8.77;6.35;;;;;;;21.50;67.27;100548.44;4953820;28;20034;-93
2021/08/21 01:24:50;;;;;;;7.32;5.78;;;;;;;21.51;67.57;100550.13;4953954;28;20023;-93
2021/08/21 01:27:21;;;;;;;7.78;5.30;;;;;;;21.52;67.30;100543.75;4954160;28;20027;-94
2021/08/21 01:29:47;;;;;;;7.40;5.20;;;;;;;21.47;67.17;100554.13;4953883;28;20032;-94
2021/08/21 01:32:13;;;;;;;7.40;5.63;;;;;;;21.42;67.11;100551.94;4953854;28;20034;-94
2021/08/21 01:34:38;;;;;;;9.05;5.40;;;;;;;21.39;67.30;100553.13;4953761;28;20031;-93
2021/08/21 01:37:04;;;;;;;7.32;5.32;;;;;;;21.37;67.29;100548.97;4953562;28;20051;-93
2021/08/21 01:39:29;;;;;;;7.88;5.32;;;;;;;21.33;67.30;100553.81;4968497;28;20160;-93
2021/08/21 01:41:54;;;;;;;6.13;5.20;;;;;;;21.08;68.41;100544.19;4953621;28;20470;-92
2021/08/21 01:44:20;;;;;;;8.23;5.97;;;;;;;21.00;68.63;100545.84;4953715;28;20027;-93
2021/08/21 01:46:48;;;;;;;6.72;4.88;;;;;;;21.25;67.85;100543.16;4952672;28;20038;-95
2021/08/21 01:49:14;;;;;;;6.22;5.00;;;;;;;21.30;67.75;100547.97;4953685;28;20024;-92
2021/08/21 01:51:45;;;;;;;5.72;4.63;;;;;;;21.37;67.61;100539.09;4953557;28;20030;-93
2021/08/21 01:54:14;;;;;;;9.13;5.68;;;;;;;21.29;67.85;100525.78;4953645;28;20027;-93
2021/08/21 01:56:51;;;;;;;9.18;6.28;;;;;;;21.42;67.73;100516.38;4954602;28;20031;-94
2021/08/21 01:59:23;;;;;;;6.55;5.38;;;;;;;21.38;67.62;100514.03;4956032;29;20024;-93
2021/08/21 02:01:49;;;;;;;8.02;5.88;;;;;;;21.08;68.81;100522.81;4956158;28;20054;-93
2021/08/21 02:04:16;;;;;;;9.93;6.72;;;;;;;21.07;69.23;100521.13;4957287;28;20691;-93
2021/08/21 02:06:42;;;;;;;10.05;7.03;;;;;;;21.08;69.24;100517.47;4957048;28;20023;-93
2021/08/21 02:09:09;;;;;;;9.10;6.13;;;;;;;21.31;68.30;100518.44;4971946;28;20385;-93
2021/08/21 02:11:34;;;;;;;10.95;7.70;;;;;;;21.28;68.38;100510.75;4956779;28;20026;-93
2021/08/21 02:13:59;;;;;;;12.73;7.50;;;;;;;21.20;68.51;100506.25;4956835;28;20020;-93
2021/08/21 02:16:25;;;;;;;13.07;8.13;;;;;;;21.31;68.40;100515.75;4956978;29;20417;-94
2021/08/21 02:18:50;;;;;;;11.10;7.30;;;;;;;21.34;68.10;100510.06;4957054;28;20037;-95
2021/08/21 02:21:19;;;;;;;11.75;7.63;;;;;;;21.41;67.99;100509.38;4957097;28;20371;-95
2021/08/21 02:23:44;;;;;;;11.32;8.02;;;;;;;21.42;67.68;100505.69;4955698;29;20114;-95
2021/08/21 02:26:10;;;;;;;12.18;8.18;;;;;;;21.34;67.98;100502.03;4956718;28;20091;-95
2021/08/21 02:28:35;;;;;;;16.67;8.02;;;;;;;21.32;68.12;100508.56;4971523;28;20058;-95
2021/08/21 02:31:01;;;;;;;9.52;7.60;;;;;;;21.38;67.97;100508.69;4956403;28;20027;-95
2021/08/21 02:33:26;;;;;;;12.68;7.70;;;;;;;21.42;67.99;100513.72;4971560;28;20031;-95
2021/08/21 02:35:51;;;;;;;11.77;7.93;;;;;;;21.43;68.14;100508.22;4956458;28;20110;-94
2021/08/21 02:38:17;;;;;;;10.70;7.43;;;;;;;21.42;67.69;100503.03;4971348;28;20446;-95
2021/08/21 02:40:42;;;;;;;12.75;8.10;;;;;;;21.34;68.24;100496.69;4956678;28;20030;-93
2021/08/21 02:43:09;;;;;;;12.13;7.95;;;;;;;21.44;68.01;100493.03;4956544;28;20102;-93
2021/08/21 02:45:35;;;;;;;10.40;7.07;;;;;;;21.46;67.83;100499.03;4956245;28;20020;-94
2021/08/21 02:48:00;;;;;;;13.52;7.60;;;;;;;21.35;68.05;100500.22;4971167;28;20123;-94
2021/08/21 02:50:26;;;;;;;12.32;7.97;;;;;;;21.41;67.92;100510.22;4955053;29;20023;-94
2021/08/21 02:52:51;;;;;;;10.00;7.07;;;;;;;21.51;67.60;100512.72;4955012;29;20522;-94
2021/08/21 02:55:16;;;;;;;13.50;8.18;;;;;;;21.49;67.72;100506.72;4956312;28;20540;-93
2021/08/21 02:57:42;;;;;;;13.48;8.48;;;;;;;21.47;67.40;100503.38;4955964;29;20516;-95
2021/08/21 03:00:08;;;;;;;13.38;8.25;;;;;;;21.49;67.58;100504.03;4955878;29;20196;-94
2021/08/21 03:02:33;;;;;;;11.80;7.47;;;;;;;21.50;67.62;100505.69;4955895;28;20513;-95
2021/08/21 03:04:59;;;;;;;10.25;7.43;;;;;;;21.52;67.49;100503.69;4955917;28;20089;-94
2021/08/21 03:07:24;;;;;;;11.43;7.80;;;;;;;21.51;67.52;100507.38;4954869;28;20035;-95
2021/08/21 03:09:49;;;;;;;13.68;8.02;;;;;;;21.52;67.26;100504.50;4970718;28;20067;-95
2021/08/21 03:12:15;;;;;;;10.50;6.80;;;;;;;21.50;67.38;100500.34;4955502;28;20367;-95
2021/08/21 03:14:40;;;;;;;10.30;7.65;;;;;;;21.54;67.41;100505.19;4955741;28;20079;-95
2021/08/21 03:17:10;;;;;;;12.65;8.10;;;;;;;21.50;67.52;100505.69;4955892;28;20035;-95
2021/08/21 03:19:35;;;;;;;10.70;7.82;;;;;;;21.52;67.65;100506.34;4955700;29;20394;-96
2021/08/21 03:22:01;;;;;;;12.02;8.30;;;;;;;21.61;67.15;100508.00;4954579;29;20147;-95
2021/08/21 03:24:26;;;;;;;14.38;7.90;;;;;;;21.55;67.20;100500.66;4954314;28;20378;-94
2021/08/21 03:26:51;;;;;;;14.13;7.82;;;;;;;21.34;67.99;100499.38;4954350;29;20374;-95
2021/08/21 03:29:17;;;;;;;10.50;7.63;;;;;;;21.23;68.43;100496.22;4955368;28;20023;-94
2021/08/21 03:31:42;;;;;;;15.90;7.90;;;;;;;21.44;67.92;100509.88;4954063;29;20087;-94
2021/08/21 03:34:07;;;;;;;12.13;8.23;;;;;;;21.41;67.91;100493.38;4955224;28;20496;-94
2021/08/21 03:36:33;;;;;;;12.93;7.75;;;;;;;21.38;68.17;100495.34;4955436;28;20026;-95
2021/08/21 03:38:59;;;;;;;13.55;8.05;;;;;;;21.42;68.01;100492.34;4970112;28;20035;-94
2021/08/21 03:41:24;;;;;;;10.82;7.25;;;;;;;21.44;67.92;100493.03;4955182;28;20378;-94
2021/08/21 03:43:50;;;;;;;12.73;7.40;;;;;;;21.47;67.86;100495.38;4955244;28;20024;-95
2021/08/21 03:46:15;;;;;;;12.52;7.68;;;;;;;21.45;67.99;100482.19;4954883;28;20031;-94
2021/08/21 03:48:41;;;;;;;12.00;7.40;;;;;;;21.33;68.83;100483.53;4954949;28;20035;-94
2021/08/21 03:51:06;;;;;;;13.35;8.32;;;;;;;21.25;68.92;100487.06;4954933;28;20536;-95
2021/08/21 03:53:31;;;;;;;11.45;8.13;;;;;;;21.27;69.27;100493.06;4954953;28;20020;-94
2021/08/21 03:55:57;;;;;;;10.30;6.97;;;;;;;21.27;69.24;100474.38;4955341;28;20074;-94
2021/08/21 03:58:22;;;;;;;13.00;7.50;;;;;;;21.28;69.44;100477.88;4953998;28;20167;-94
2021/08/21 04:00:47;;;;;;;9.02;7.13;;;;;;;21.24;69.66;100479.22;4954995;29;20497;-95
2021/08/21 04:03:13;;;;;;;11.13;6.85;;;;;;;21.32;69.69;100476.50;4953650;28;20470;-94
2021/08/21 04:05:38;;;;;;;12.65;7.60;;;;;;;21.24;70.00;100469.38;4953940;28;20089;-93
2021/08/21 04:08:04;;;;;;;10.85;6.70;;;;;;;21.27;69.91;100474.38;4953751;28;20031;-95
2021/08/21 04:10:30;;;;;;;8.48;7.20;;;;;;;21.26;70.13;100472.69;4954913;28;20379;-94
2021/08/21 04:12:55;;;;;;;9.00;7.35;;;;;;;21.42;69.39;100468.31;4953815;28;20023;-94
2021/08/21 04:15:20;;;;;;;13.02;7.95;;;;;;;21.46;69.23;100462.47;4954859;28;20490;-94
2021/08/21 04:17:46;;;;;;;11.65;7.90;;;;;;;21.42;69.32;100458.44;4955203;28;20031;-95
2021/08/21 04:20:11;;;;;;;9.80;7.68;;;;;;;21.45;69.13;100462.66;4954757;28;20548;-96
2021/08/21 04:22:37;;;;;;;13.35;7.78;;;;;;;21.42;69.13;100454.94;4954786;28;20034;-96
2021/08/21 04:25:03;;;;;;;10.68;7.05;;;;;;;21.45;69.11;100470.66;4953534;28;20031;-96
2021/08/21 04:27:28;;;;;;;10.20;7.07;;;;;;;21.45;69.38;100470.66;4969446;28;20023;-96
2021/08/21 04:29:54;;;;;;;12.07;7.38;;;;;;;21.53;68.81;100463.44;4953176;28;20118;-96
2021/08/21 04:32:19;;;;;;;12.13;7.65;;;;;;;21.52;69.02;100460.94;4953359;28;20074;-95
2021/08/21 04:34:45;;;;;;;12.60;7.72;;;;;;;21.49;68.73;100461.31;4975762;28;20031;-96
2021/08/21 04:37:10;;;;;;;11.40;8.27;;;;;;;21.46;68.98;100456.28;4957617;29;20023;-96
2021/08/21 04:39:35;;;;;;;15.40;8.95;;;;;;;21.36;69.73;100453.78;4953912;28;20038;-96
2021/08/21 04:42:01;;;;;;;12.10;7.30;;;;;;;21.36;69.50;100448.47;4954149;29;20051;-96
2021/08/21 04:44:26;;;;;;;12.35;7.88;;;;;;;21.34;69.66;100450.47;4956045;28;20434;-96
2021/08/21 04:46:52;;;;;;;11.15;6.95;;;;;;;21.35;69.70;100441.47;4957024;28;20027;-96
2021/08/21 04:49:17;;;;;;;11.23;6.75;;;;;;;21.35;69.57;100442.28;4958101;29;20054;-96
2021/08/21 04:51:43;;;;;;;9.85;5.60;;;;;;;21.42;69.01;100441.59;4959246;28;20031;-96
2021/08/21 04:54:08;;;;;;;6.25;5.13;;;;;;;21.41;68.85;100443.44;4974390;28;20522;-96
2021/08/21 04:56:34;;;;;;;7.50;4.95;;;;;;;21.42;68.78;100445.09;4962219;29;20474;-96
2021/08/21 04:58:59;;;;;;;5.55;4.53;;;;;;;21.37;69.02;100445.63;4982649;28;20035;-96
2021/08/21 05:01:25;;;;;;;6.45;4.63;;;;;;;21.16;69.27;100432.84;4983825;28;20024;-96
2021/08/21 05:03:50;;;;;;;6.50;4.30;;;;;;;21.01;70.14;100434.59;4987202;28;20077;-96
2021/08/21 05:06:16;;;;;;;6.25;4.68;;;;;;;20.94;70.50;100436.25;4966821;29;20051;-96
2021/08/21 05:08:43;;;;;;;6.70;4.68;;;;;;;21.15;69.86;100428.53;4988216;28;20039;-96
2021/08/21 05:11:11;;;;;;;6.60;4.43;;;;;;;21.28;69.26;100435.97;4988230;28;20108;-96
2021/08/21 05:13:38;;;;;;;5.82;4.60;;;;;;;21.27;69.45;100433.47;4989006;28;20035;-96
2021/08/21 05:16:10;;;;;;;7.75;4.20;;;;;;;21.28;69.10;100416.44;4988758;28;20047;-96
2021/08/21 05:19:04;;;;;;;7.80;3.90;;;;;;;21.06;69.77;100412.72;4972566;28;20083;-96
2021/08/21 05:21:33;;;;;;;5.80;4.13;;;;;;;20.94;70.07;100410.41;4969737;29;20039;-96
2021/08/21 05:24:00;;;;;;;6.65;4.78;;;;;;;21.02;70.09;100422.06;4955746;28;20039;-96
2021/08/21 05:26:26;;;;;;;8.30;5.07;;;;;;;21.04;70.32;100420.88;4970164;28;20119;-96
2021/08/21 05:28:52;;;;;;;7.38;5.25;;;;;;;20.98;70.26;100422.41;4975936;29;20035;-96
2021/08/21 05:31:20;;;;;;;9.25;6.00;;;;;;;20.94;70.48;100423.75;4979101;28;20031;-96
2021/08/21 05:33:49;;;;;;;13.00;7.93;;;;;;;20.95;70.71;100424.56;4965087;29;20041;-96
2021/08/21 05:36:15;;;;;;;10.02;7.82;;;;;;;20.95;70.68;100433.44;4981505;28;20083;-96
2021/08/21 05:38:41;;;;;;;16.88;9.20;;;;;;;20.87;70.76;100432.59;4995659;28;20027;-96
2021/08/21 05:41:06;;;;;;;15.35;9.48;;;;;;;20.95;71.26;100432.56;4994538;28;20062;-96
2021/08/21 05:43:32;;;;;;;15.45;9.82;;;;;;;20.91;71.32;100421.44;4995913;28;20034;-95
2021/08/21 05:45:57;;;;;;;15.45;10.00;;;;;;;20.95;71.27;100428.09;4978904;28;20028;-96
2021/08/21 05:48:24;;;;;;;17.05;10.43;;;;;;;20.96;70.88;100432.41;4979918;28;20027;-95
2021/08/21 05:50:51;;;;;;;17.63;10.68;;;;;;;20.89;71.29;100449.28;4978403;28;20063;-95
2021/08/21 05:53:16;;;;;;;14.82;9.57;;;;;;;20.94;71.23;100452.28;4978095;29;20015;-96
2021/08/21 05:55:42;;;;;;;16.92;10.43;;;;;;;20.93;71.49;100440.78;4979891;28;20051;-96
2021/08/21 05:58:08;;;;;;;17.33;11.13;;;;;;;20.92;71.17;100433.75;4995782;28;20039;-96
2021/08/21 06:00:34;;;;;;;21.02;11.05;;;;;;;21.00;71.07;100435.56;4981255;28;20027;-96
2021/08/21 06:03:00;;;;;;;16.80;9.90;;;;;;;21.04;70.89;100442.22;4981363;28;20034;-96
2021/08/21 06:05:25;;;;;;;21.77;12.70;;;;;;;21.02;70.83;100438.09;4995757;28;20007;-96
2021/08/21 06:07:51;;;;;;;20.30;10.77;;;;;;;20.90;71.32;100441.09;4979683;28;20019;-95
2021/08/21 06:10:16;;;;;;;17.73;11.02;;;;;;;20.91;71.17;100442.78;4977609;29;20027;-96
2021/08/21 06:12:42;;;;;;;20.52;11.50;;;;;;;20.84;71.26;100443.63;4993134;28;20030;-96
2021/08/21 06:15:08;;;;;;;19.05;11.30;;;;;;;20.94;70.61;100453.09;4977065;28;20075;-96
2021/08/21 06:17:36;;;;;;;20.15;12.10;;;;;;;20.97;70.59;100449.25;4974529;28;20020;-96
2021/08/21 06:20:04;;;;;;;19.60;11.48;;;;;;;20.86;70.61;100439.78;4957179;29;20059;-96
2021/08/21 06:27:50;;;;;;;19.75;11.32;;;;;;;20.78;70.37;100423.81;5713648;23;20038;-96
2021/08/21 06:30:16;;;;;;;18.92;11.75;;;;;;;20.74;70.35;100415.28;4996368;28;20078;-96
2021/08/21 06:32:42;;;;;;;18.38;10.77;;;;;;;20.80;70.36;100427.13;4996446;28;20034;-96
2021/08/21 06:35:08;;;;;;;21.40;11.82;;;;;;;20.86;70.40;100445.13;4999262;28;20023;-96
2021/08/21 06:37:33;;;;;;;18.50;11.32;;;;;;;20.86;70.58;100441.63;4998977;28;20054;-96
2021/08/21 06:39:59;;;;;;;17.23;11.00;;;;;;;21.06;69.83;100460.75;4996768;28;20031;-96
2021/08/21 06:50:08;;;;;;;20.77;11.25;;;;;;;20.79;69.20;100439.66;4996676;28;20065;-96
2021/08/21 06:52:33;;;;;;;17.02;9.98;;;;;;;20.75;70.21;100449.00;4999460;28;20025;-96
2021/08/21 06:55:05;;;;;;;18.90;9.43;;;;;;;20.89;68.72;100438.59;5585026;23;20017;-96
2021/08/21 06:57:31;;;;;;;;;;;;;;;21.00;69.16;100444.41;4999619;28;20042;-96
2021/08/21 07:05:07;;;;;;;17.10;9.65;;;;;;;20.73;69.92;100418.13;5019690;23;20051;-96
2021/08/21 07:07:32;;;;;;;16.20;8.25;;;;;;;20.75;69.66;100421.47;4990441;28;20066;-96
2021/08/21 07:09:58;;;;;;;16.52;8.82;;;;;;;20.67;69.26;100413.47;4992164;28;20521;-96
2021/08/21 07:12:24;;;;;;;13.85;8.40;;;;;;;20.62;69.93;100411.31;4992048;28;20027;-96
2021/08/21 07:14:49;;;;;;;16.00;8.48;;;;;;;20.75;69.19;100418.78;4989007;28;20022;-96
2021/08/21 07:17:15;;;;;;;13.52;7.22;;;;;;;20.87;68.99;100409.41;4990433;28;20034;-96
2021/08/21 07:19:42;;;;;;;13.70;8.60;;;;;;;20.83;69.43;100413.44;4990959;28;20027;-96
2021/08/21 07:24:43;;;;;;;13.25;8.18;;;;;;;20.91;69.15;100402.75;5138424;23;20046;-95
2021/08/21 07:27:24;;;;;;;15.55;7.97;;;;;;;21.08;68.10;100402.69;5543709;23;20089;-96
2021/08/21 07:29:50;;;;;;;13.13;7.55;;;;;;;20.94;68.22;100399.72;4998567;28;20047;-96
2021/08/21 07:34:53;;;;;;;13.55;8.05;;;;;;;20.83;68.48;100402.75;5487432;23;20066;-96
2021/08/21 07:37:21;;;;;;;11.25;7.20;;;;;;;20.73;69.13;100418.94;5478853;23;20059;-96
2021/08/21 07:47:27;;;;;;;11.50;6.90;;;;;;;20.74;68.66;100419.81;5120785;23;20042;-96
2021/08/21 07:49:53;;;;;;;11.80;6.68;;;;;;;20.68;69.22;100415.16;4995985;28;20043;-96
2021/08/21 08:06:09;;;;;;;9.65;4.80;;;;;;;20.72;67.79;100413.81;5123145;23;20331;-94
2021/08/21 08:11:09;;;;;;;9.75;4.43;;;;;;;20.23;68.68;100409.31;5841116;23;21121;-95
2021/08/21 08:31:39;;;;;;;8.55;4.18;;;;;;;20.70;68.49;100450.50;4953296;29;20052;-95
2021/08/21 08:34:04;;;;;;;10.75;5.10;;;;;;;20.85;69.03;100464.78;4950823;29;20087;-96
2021/08/21 08:36:30;;;;;;;7.25;4.15;;;;;;;21.10;68.47;100457.56;4942685;29;20387;-95
2021/08/21 08:38:55;;;;;;;10.35;5.30;;;;;;;21.05;68.79;100462.59;4935467;29;20031;-95
2021/08/21 08:41:22;;;;;;;7.82;5.53;;;;;;;21.13;69.56;100462.56;4935599;29;20028;-96
2021/08/21 08:43:48;;;;;;;8.95;5.25;;;;;;;21.23;69.57;100461.53;4935947;29;20443;-95
2021/08/21 08:46:18;;;;;;;12.98;6.28;;;;;;;21.03;70.73;100461.09;4935705;29;20027;-95
2021/08/21 08:48:45;;;;;;;8.65;4.25;;;;;;;21.00;70.58;100459.59;4935198;29;20032;-94
2021/08/21 08:51:11;;;;;;;9.82;4.55;;;;;;;20.90;70.51;100446.44;4935408;29;20071;-95
2021/08/21 08:53:36;;;;;;;7.40;4.38;;;;;;;20.82;70.53;100445.66;4935290;29;20030;-94
2021/08/21 08:56:02;;;;;;;7.30;4.43;;;;;;;20.95;70.81;100444.09;4935330;29;20107;-95
2021/08/21 08:58:28;;;;;;;10.57;4.20;;;;;;;20.99;70.68;100444.56;4917820;29;20028;-94
2021/08/21 09:00:53;;;;;;;6.97;4.15;;;;;;;21.06;70.83;100445.56;4935255;29;20475;-95
2021/08/21 09:03:25;;;;;;;7.15;4.05;;;;;;;20.94;70.93;100444.28;4918327;29;20024;-95
2021/08/21 09:05:52;;;;;;;;;;;;;;;20.99;70.99;100448.09;4936427;29;20566;-94
2021/08/21 09:08:23;;;;;;;6.45;4.28;;;;;;;20.83;70.76;100447.28;4939149;29;19997;-94
2021/08/21 09:10:49;;;;;;;5.28;3.33;;;;;;;20.95;70.62;100443.25;4939462;29;20027;-95
2021/08/21 09:13:16;;;;;;;6.78;3.50;;;;;;;20.88;70.62;100437.78;4939526;29;20483;-95
2021/08/21 09:15:58;;;;;;;7.40;3.63;;;;;;;20.80;71.25;100438.63;4922162;29;20028;-94
2021/08/21 09:18:25;;;;;;;9.48;4.03;;;;;;;20.81;71.60;100439.44;4922309;29;20508;-95
2021/08/21 09:20:54;;;;;;;7.90;3.95;;;;;;;20.86;71.44;100439.78;4922181;29;20200;-94
2021/08/21 09:23:31;;;;;;;5.80;3.72;;;;;;;20.99;70.39;100450.78;4922467;29;20079;-95
2021/08/21 09:26:25;;;;;;;6.88;3.72;;;;;;;21.00;70.40;100436.41;4922463;29;20050;-96
2021/08/21 09:28:52;;;;;;;6.57;3.47;;;;;;;20.74;71.28;100428.63;4924287;29;20577;-96
2021/08/21 09:31:19;;;;;;;6.32;3.15;;;;;;;20.89;70.61;100430.59;4922421;29;20039;-93
2021/08/21 09:34:00;;;;;;;8.00;3.47;;;;;;;21.07;70.29;100435.72;4922295;29;20039;-94
2021/08/21 09:36:31;;;;;;;6.97;3.45;;;;;;;20.88;71.12;100436.94;4921819;29;20054;-93
2021/08/21 09:38:58;;;;;;;5.63;3.47;;;;;;;20.87;70.43;100430.75;4921372;29;20043;-94
2021/08/21 09:41:23;;;;;;;10.48;3.10;;;;;;;20.40;72.79;100419.00;4938664;29;20058;-95
2021/08/21 09:44:03;;;;;;;2.92;2.58;;;;;;;20.69;72.13;100422.13;4921821;29;20104;-94
2021/08/21 09:46:29;;;;;;;7.15;3.15;;;;;;;20.71;72.02;100420.13;4921668;29;20030;-96
2021/08/21 09:49:09;;;;;;;4.95;2.70;;;;;;;20.82;71.36;100422.44;4922361;29;20032;-95
2021/08/21 09:51:41;;;;;;;5.72;3.28;;;;;;;20.66;72.20;100423.31;4923565;29;20020;-95
2021/08/21 09:54:09;;;;;;;6.15;3.35;;;;;;;20.72;72.00;100427.97;4938619;29;20024;-94
2021/08/21 09:56:38;;;;;;;5.43;3.10;;;;;;;20.65;71.77;100426.97;4921963;29;20028;-95
2021/08/21 09:59:05;;;;;;;6.03;3.50;;;;;;;20.65;71.88;100420.81;4922207;29;20034;-95
2021/08/21 10:01:32;;;;;;;4.72;3.38;;;;;;;20.80;71.43;100419.94;4921948;29;20024;-96
2021/08/21 10:03:58;;;;;;;5.65;3.30;;;;;;;20.87;71.48;100419.25;4921598;29;20545;-96
2021/08/21 10:06:24;;;;;;;9.15;3.60;;;;;;;20.84;71.86;100428.44;4921676;29;20031;-96
2021/08/21 10:08:58;;;;;;;7.72;3.97;;;;;;;20.99;70.89;100424.06;4921535;29;20055;-95
2021/08/21 10:11:23;;;;;;;7.00;4.10;;;;;;;20.93;71.55;100421.25;4921423;29;20024;-95
2021/08/21 10:13:49;;;;;;;4.30;3.40;;;;;;;20.93;71.83;100421.25;4923117;29;20028;-95
2021/08/21 10:16:15;;;;;;;5.80;3.80;;;;;;;20.99;71.81;100416.06;4921662;29;20071;-95
2021/08/21 10:18:42;;;;;;;5.50;3.72;;;;;;;21.05;71.81;100421.69;4922678;29;20028;-96
2021/08/21 10:21:08;;;;;;;5.22;3.00;;;;;;;21.03;71.41;100421.03;4923620;29;20028;-96
2021/08/21 10:23:34;;;;;;;5.10;3.35;;;;;;;21.13;71.78;100425.19;4925235;29;20027;-96
2021/08/21 10:26:14;;;;;;;4.63;3.63;;;;;;;21.15;72.03;100425.84;4924117;29;20070;-96
2021/08/21 10:28:41;;;;;;;5.15;3.65;;;;;;;21.22;71.16;100430.50;4921790;29;20027;-95
2021/08/21 10:31:07;;;;;;;5.90;3.67;;;;;;;21.12;71.99;100422.69;4922427;29;20031;-95
2021/08/21 10:33:55;;;;;;;6.90;3.55;;;;;;;21.28;71.78;100417.28;4922772;29;20023;-96
2021/08/21 10:36:49;;;;;;;6.07;3.60;;;;;;;21.31;72.06;100418.78;4927754;29;20557;-94
2021/08/21 10:39:24;;;;;;;6.82;3.78;;;;;;;21.24;73.17;100410.63;4934061;29;20024;-93
2021/08/21 10:41:52;;;;;;;5.35;3.03;;;;;;;21.30;72.27;100412.59;4939107;29;20040;-94
2021/08/21 10:44:41;;;;;;;5.28;3.70;;;;;;;21.41;72.74;100405.22;4940427;29;20000;-95
2021/08/21 10:47:07;;;;;;;4.10;3.22;;;;;;;21.32;73.14;100410.56;4940897;29;20019;-93
2021/08/21 10:49:43;;;;;;;6.28;3.30;;;;;;;21.49;72.29;100406.03;4958385;29;20471;-94
2021/08/21 10:52:47;;;;;;;3.50;3.15;;;;;;;21.60;72.31;100420.81;4942259;29;20024;-93
2021/08/21 10:55:14;;;;;;;5.25;3.53;;;;;;;21.34;72.96;100421.91;4945347;29;20024;-93
2021/08/21 10:57:58;;;;;;;4.75;3.25;;;;;;;21.72;71.77;100423.91;4945704;29;20008;-94
2021/08/21 11:00:39;;;;;;;5.15;3.72;;;;;;;21.85;71.61;100405.47;4945628;28;20039;-92
2021/08/21 11:03:05;;;;;;;3.38;3.08;;;;;;;21.92;71.25;100413.59;4961977;28;20084;-94
2021/08/21 11:05:50;;;;;;;4.22;3.38;;;;;;;22.15;71.27;100410.91;4945639;29;20027;-94
2021/08/21 11:08:16;;;;;;;4.78;3.45;;;;;;;21.98;71.06;100423.59;4945421;28;20012;-96
2021/08/21 11:10:41;;;;;;;6.30;3.80;;;;;;;21.85;70.22;100412.66;4945396;28;20091;-95
2021/08/21 11:13:11;;;;;;;3.95;3.00;;;;;;;21.99;70.21;100411.88;4944669;29;20004;-95
2021/08/21 11:15:37;;;;;;;3.42;2.75;;;;;;;22.16;69.53;100412.59;4945415;29;20087;-95
2021/08/21 11:18:05;;;;;;;4.53;3.67;;;;;;;22.13;69.75;100410.25;4944980;28;20066;-96
2021/08/21 11:20:35;;;;;;;7.03;3.42;;;;;;;22.09;69.27;100414.31;4945224;28;20023;-95
2021/08/21 11:23:07;;;;;;;7.10;3.80;;;;;;;22.14;69.31;100418.13;4945191;28;20016;-96
2021/08/21 11:25:36;;;;;;;;;;;;;;;22.27;68.32;100412.16;4945504;28;20012;-96
2021/08/21 11:28:06;;;;;;;4.47;3.83;;;;;;;22.09;70.00;100412.47;4944660;28;19910;-96
2021/08/21 11:30:33;;;;;;;8.85;4.50;;;;;;;22.09;69.64;100404.44;4944635;29;20019;-96
2021/08/21 11:33:07;;;;;;;4.93;4.43;;;;;;;22.09;70.25;100409.78;4944999;29;20065;-96
2021/08/21 11:35:52;;;;;;;7.32;4.28;;;;;;;22.09;70.00;100408.97;4945107;28;20027;-96
2021/08/21 11:38:27;;;;;;;7.57;4.90;;;;;;;22.11;70.33;100413.13;4945048;28;20035;-96
2021/08/21 11:40:54;;;;;;;6.78;4.80;;;;;;;21.73;70.32;100410.38;4945149;29;20015;-96
2021/08/21 11:43:22;;;;;;;8.50;4.80;;;;;;;21.79;70.34;100411.53;4945107;29;20008;-96
2021/08/21 11:45:48;;;;;;;8.02;5.38;;;;;;;21.70;70.75;100412.56;4938867;29;20024;-95
2021/08/21 11:48:14;;;;;;;7.70;5.22;;;;;;;21.81;70.19;100417.53;4930423;29;20035;-96
2021/08/21 11:50:41;;;;;;;6.72;5.22;;;;;;;21.77;70.64;100419.72;4933963;29;20036;-96
2021/08/21 11:53:16;;;;;;;9.35;6.15;;;;;;;21.79;70.74;100414.19;4932276;29;20024;-96
2021/08/21 11:55:43;;;;;;;5.72;4.68;;;;;;;21.83;70.30;100407.47;4932797;29;20039;-96
2021/08/21 11:58:10;;;;;;;5.72;4.60;;;;;;;21.72;70.37;100405.22;4937967;29;20028;-96
2021/08/21 12:00:40;;;;;;;6.70;5.00;;;;;;;21.72;70.90;100414.09;4936092;29;20024;-96
2021/08/21 12:03:08;;;;;;;7.65;4.35;;;;;;;21.81;70.24;100412.19;4935779;29;20079;-96
2021/08/21 12:05:50;;;;;;;10.13;4.70;;;;;;;21.79;69.93;100403.50;4938299;29;20024;-96
2021/08/21 12:08:23;;;;;;;5.55;4.90;;;;;;;21.66;70.87;100420.09;4957520;29;20019;-96
2021/08/21 12:11:04;;;;;;;4.13;3.70;;;;;;;21.77;70.14;100414.38;4941469;29;20062;-96
2021/08/21 12:13:37;;;;;;;11.57;5.03;;;;;;;21.68;71.22;100417.25;4925575;29;20031;-96
2021/08/21 12:16:07;;;;;;;6.88;5.10;;;;;;;21.70;71.08;100420.59;4935999;29;20036;-96
2021/08/21 12:18:36;;;;;;;7.90;5.67;;;;;;;21.65;70.93;100414.97;4920442;29;20087;-96
2021/08/21 12:21:04;;;;;;;8.88;5.32;;;;;;;21.66;71.40;100414.75;4919992;29;20397;-96
2021/08/21 12:23:29;;;;;;;6.68;5.07;;;;;;;21.69;71.45;100418.94;4920191;29;20030;-96
2021/08/21 12:25:59;;;;;;;7.85;5.90;;;;;;;21.79;71.65;100415.03;4919682;29;20019;-96
2021/08/21 12:28:34;;;;;;;6.25;4.95;;;;;;;21.80;71.76;100421.22;4919970;29;20457;-94
2021/08/21 12:31:02;;;;;;;6.75;5.13;;;;;;;21.77;71.46;100419.72;4919671;29;20035;-96